sensor_id;sensor_type;location;lat;lon;timestamp;P1;durP1;ratioP1;P2;durP2;ratioP2
34836;SDS011;21053;50.848;4.652;2023-05-10T00:01:53;13.85;;;5.88;;
34836;SDS011;21053;50.848;4.652;2023-05-10T00:04:19;15.35;;;6.25;;
34836;SDS011;21053;50.848;4.652;2023-05-10T00:09:15;15.48;;;5.63;;
34836;SDS011;21053;50.848;4.652;2023-05-10T00:11:41;13.15;;;5.53;;
34836;SDS011;21053;50.848;4.652;2023-05-10T00:14:07;12.30;;;6.03;;
34836;SDS011;21053;50.848;4.652;2023-05-10T00:16:33;14.77;;;6.05;;
34836;SDS011;21053;50.848;4.652;2023-05-10T00:19:00;14.32;;;6.05;;
34836;SDS011;21053;50.848;4.652;2023-05-10T00:21:28;11.80;;;6.15;;
34836;SDS011;21053;50.848;4.652;2023-05-10T00:23:57;13.80;;;5.63;;
34836;SDS011;21053;50.848;4.652;2023-05-10T00:28:56;15.10;;;6.40;;
34836;SDS011;21053;50.848;4.652;2023-05-10T00:31:25;21.20;;;6.88;;
34836;SDS011;21053;50.848;4.652;2023-05-10T00:33:59;12.65;;;6.47;;
34836;SDS011;21053;50.848;4.652;2023-05-10T00:36:26;19.33;;;7.00;;
34836;SDS011;21053;50.848;4.652;2023-05-10T00:38:56;16.42;;;7.65;;
34836;SDS011;21053;50.848;4.652;2023-05-10T00:41:21;17.85;;;7.07;;
34836;SDS011;21053;50.848;4.652;2023-05-10T00:43:48;15.25;;;7.07;;
34836;SDS011;21053;50.848;4.652;2023-05-10T00:46:14;18.98;;;6.55;;
34836;SDS011;21053;50.848;4.652;2023-05-10T00:51:10;13.68;;;6.85;;
34836;SDS011;21053;50.848;4.652;2023-05-10T00:53:37;21.90;;;8.05;;
34836;SDS011;21053;50.848;4.652;2023-05-10T00:56:03;17.55;;;7.55;;
34836;SDS011;21053;50.848;4.652;2023-05-10T00:58:32;15.63;;;6.75;;
34836;SDS011;21053;50.848;4.652;2023-05-10T01:00:58;16.77;;;7.07;;
34836;SDS011;21053;50.848;4.652;2023-05-10T01:03:28;18.38;;;7.18;;
34836;SDS011;21053;50.848;4.652;2023-05-10T01:05:56;18.92;;;7.55;;
34836;SDS011;21053;50.848;4.652;2023-05-10T01:08:25;16.73;;;7.40;;
34836;SDS011;21053;50.848;4.652;2023-05-10T01:10:53;15.20;;;6.60;;
34836;SDS011;21053;50.848;4.652;2023-05-10T01:13:40;17.55;;;7.70;;
34836;SDS011;21053;50.848;4.652;2023-05-10T01:16:09;19.67;;;7.75;;
34836;SDS011;21053;50.848;4.652;2023-05-10T01:18:39;15.88;;;7.43;;
34836;SDS011;21053;50.848;4.652;2023-05-10T01:29:48;12.70;;;7.60;;
34836;SDS011;21053;50.848;4.652;2023-05-10T01:35:19;21.30;;;8.68;;
34836;SDS011;21053;50.848;4.652;2023-05-10T01:43:37;26.70;;;9.00;;
34836;SDS011;21053;50.848;4.652;2023-05-10T01:46:28;20.67;;;9.35;;
34836;SDS011;21053;50.848;4.652;2023-05-10T01:49:02;19.23;;;8.43;;
34836;SDS011;21053;50.848;4.652;2023-05-10T01:51:38;22.67;;;9.00;;
34836;SDS011;21053;50.848;4.652;2023-05-10T01:54:08;19.80;;;9.07;;
34836;SDS011;21053;50.848;4.652;2023-05-10T01:56:35;25.92;;;9.35;;
34836;SDS011;21053;50.848;4.652;2023-05-10T01:59:05;16.70;;;9.05;;
34836;SDS011;21053;50.848;4.652;2023-05-10T02:01:38;25.15;;;9.38;;
34836;SDS011;21053;50.848;4.652;2023-05-10T02:04:07;26.02;;;9.95;;
34836;SDS011;21053;50.848;4.652;2023-05-10T02:06:36;25.27;;;9.00;;
34836;SDS011;21053;50.848;4.652;2023-05-10T02:09:07;24.40;;;9.65;;
34836;SDS011;21053;50.848;4.652;2023-05-10T02:11:34;23.10;;;10.18;;
34836;SDS011;21053;50.848;4.652;2023-05-10T02:14:02;23.70;;;10.10;;
34836;SDS011;21053;50.848;4.652;2023-05-10T02:16:31;20.25;;;9.93;;
34836;SDS011;21053;50.848;4.652;2023-05-10T02:18:59;19.27;;;9.43;;
34836;SDS011;21053;50.848;4.652;2023-05-10T02:21:28;20.20;;;9.80;;
34836;SDS011;21053;50.848;4.652;2023-05-10T02:23:57;26.60;;;10.20;;
34836;SDS011;21053;50.848;4.652;2023-05-10T02:26:24;20.92;;;9.75;;
34836;SDS011;21053;50.848;4.652;2023-05-10T02:28:51;18.05;;;9.98;;
34836;SDS011;21053;50.848;4.652;2023-05-10T02:31:18;21.83;;;10.57;;
34836;SDS011;21053;50.848;4.652;2023-05-10T02:33:48;18.98;;;9.98;;
34836;SDS011;21053;50.848;4.652;2023-05-10T02:38:47;21.23;;;10.27;;
34836;SDS011;21053;50.848;4.652;2023-05-10T02:43:51;20.27;;;10.10;;
34836;SDS011;21053;50.848;4.652;2023-05-10T02:48:49;22.58;;;10.63;;
34836;SDS011;21053;50.848;4.652;2023-05-10T02:51:17;22.38;;;10.43;;
34836;SDS011;21053;50.848;4.652;2023-05-10T02:53:50;20.35;;;9.52;;
34836;SDS011;21053;50.848;4.652;2023-05-10T02:58:52;21.52;;;10.52;;
34836;SDS011;21053;50.848;4.652;2023-05-10T03:01:19;22.40;;;10.10;;
34836;SDS011;21053;50.848;4.652;2023-05-10T03:03:46;19.88;;;9.70;;
34836;SDS011;21053;50.848;4.652;2023-05-10T03:06:18;23.98;;;10.43;;
34836;SDS011;21053;50.848;4.652;2023-05-10T03:08:45;26.15;;;10.50;;
34836;SDS011;21053;50.848;4.652;2023-05-10T03:13:57;19.77;;;9.60;;
34836;SDS011;21053;50.848;4.652;2023-05-10T03:19:30;21.63;;;9.80;;
34836;SDS011;21053;50.848;4.652;2023-05-10T03:22:03;20.63;;;9.35;;
34836;SDS011;21053;50.848;4.652;2023-05-10T03:24:36;19.08;;;8.90;;
34836;SDS011;21053;50.848;4.652;2023-05-10T03:27:07;16.70;;;8.40;;
34836;SDS011;21053;50.848;4.652;2023-05-10T03:29:34;18.05;;;8.30;;
34836;SDS011;21053;50.848;4.652;2023-05-10T03:32:02;20.80;;;8.90;;
34836;SDS011;21053;50.848;4.652;2023-05-10T03:34:30;22.20;;;9.65;;
34836;SDS011;21053;50.848;4.652;2023-05-10T03:36:56;19.75;;;8.75;;
34836;SDS011;21053;50.848;4.652;2023-05-10T03:39:25;24.55;;;9.23;;
34836;SDS011;21053;50.848;4.652;2023-05-10T03:41:57;22.30;;;9.70;;
34836;SDS011;21053;50.848;4.652;2023-05-10T03:44:26;22.70;;;10.18;;
34836;SDS011;21053;50.848;4.652;2023-05-10T03:46:53;29.48;;;10.55;;
34836;SDS011;21053;50.848;4.652;2023-05-10T03:49:21;24.17;;;10.70;;
34836;SDS011;21053;50.848;4.652;2023-05-10T03:51:50;22.35;;;10.50;;
34836;SDS011;21053;50.848;4.652;2023-05-10T03:54:17;21.15;;;10.20;;
34836;SDS011;21053;50.848;4.652;2023-05-10T03:56:43;27.85;;;10.43;;
34836;SDS011;21053;50.848;4.652;2023-05-10T03:59:09;26.92;;;10.20;;
34836;SDS011;21053;50.848;4.652;2023-05-10T04:01:37;23.65;;;10.00;;
34836;SDS011;21053;50.848;4.652;2023-05-10T04:04:03;26.13;;;11.52;;
34836;SDS011;21053;50.848;4.652;2023-05-10T04:06:32;24.02;;;11.35;;
34836;SDS011;21053;50.848;4.652;2023-05-10T04:08:58;33.67;;;13.38;;
34836;SDS011;21053;50.848;4.652;2023-05-10T04:11:26;28.92;;;12.88;;
34836;SDS011;21053;50.848;4.652;2023-05-10T04:13:52;27.55;;;13.35;;
34836;SDS011;21053;50.848;4.652;2023-05-10T04:16:19;28.15;;;12.68;;
34836;SDS011;21053;50.848;4.652;2023-05-10T04:18:46;23.10;;;12.02;;
34836;SDS011;21053;50.848;4.652;2023-05-10T04:21:14;26.33;;;11.90;;
34836;SDS011;21053;50.848;4.652;2023-05-10T04:23:42;25.40;;;11.93;;
34836;SDS011;21053;50.848;4.652;2023-05-10T04:26:07;28.80;;;12.18;;
34836;SDS011;21053;50.848;4.652;2023-05-10T04:28:33;26.40;;;11.57;;
34836;SDS011;21053;50.848;4.652;2023-05-10T04:31:01;27.35;;;11.52;;
34836;SDS011;21053;50.848;4.652;2023-05-10T04:33:29;29.58;;;12.80;;
34836;SDS011;21053;50.848;4.652;2023-05-10T04:36:01;28.73;;;11.68;;
34836;SDS011;21053;50.848;4.652;2023-05-10T04:38:28;29.38;;;13.48;;
34836;SDS011;21053;50.848;4.652;2023-05-10T04:41:05;35.42;;;14.35;;
34836;SDS011;21053;50.848;4.652;2023-05-10T04:43:37;28.52;;;13.27;;
34836;SDS011;21053;50.848;4.652;2023-05-10T04:46:04;30.40;;;13.63;;
34836;SDS011;21053;50.848;4.652;2023-05-10T04:48:31;31.65;;;13.63;;
34836;SDS011;21053;50.848;4.652;2023-05-10T04:50:57;26.30;;;13.18;;
34836;SDS011;21053;50.848;4.652;2023-05-10T04:53:23;33.70;;;14.07;;
34836;SDS011;21053;50.848;4.652;2023-05-10T04:55:49;32.90;;;14.88;;
34836;SDS011;21053;50.848;4.652;2023-05-10T04:58:15;29.23;;;14.27;;
34836;SDS011;21053;50.848;4.652;2023-05-10T05:03:10;34.50;;;14.38;;
34836;SDS011;21053;50.848;4.652;2023-05-10T05:05:37;35.15;;;15.32;;
34836;SDS011;21053;50.848;4.652;2023-05-10T05:08:03;35.90;;;15.45;;
34836;SDS011;21053;50.848;4.652;2023-05-10T05:10:29;39.95;;;15.77;;
34836;SDS011;21053;50.848;4.652;2023-05-10T05:12:56;34.97;;;16.20;;
34836;SDS011;21053;50.848;4.652;2023-05-10T05:17:51;36.88;;;16.55;;
34836;SDS011;21053;50.848;4.652;2023-05-10T05:20:16;36.42;;;15.73;;
34836;SDS011;21053;50.848;4.652;2023-05-10T05:22:47;38.50;;;17.30;;
34836;SDS011;21053;50.848;4.652;2023-05-10T05:25:12;39.00;;;16.25;;
34836;SDS011;21053;50.848;4.652;2023-05-10T05:27:40;37.53;;;17.13;;
34836;SDS011;21053;50.848;4.652;2023-05-10T05:30:06;40.15;;;18.13;;
34836;SDS011;21053;50.848;4.652;2023-05-10T05:32:34;43.58;;;17.67;;
34836;SDS011;21053;50.848;4.652;2023-05-10T05:35:01;38.60;;;17.25;;
34836;SDS011;21053;50.848;4.652;2023-05-10T05:37:28;36.85;;;17.15;;
34836;SDS011;21053;50.848;4.652;2023-05-10T05:39:57;35.35;;;16.90;;
34836;SDS011;21053;50.848;4.652;2023-05-10T05:42:24;35.33;;;16.98;;
34836;SDS011;21053;50.848;4.652;2023-05-10T05:49:48;33.50;;;16.85;;
34836;SDS011;21053;50.848;4.652;2023-05-10T05:52:14;51.80;;;17.27;;
34836;SDS011;21053;50.848;4.652;2023-05-10T05:54:41;43.45;;;17.77;;
34836;SDS011;21053;50.848;4.652;2023-05-10T05:57:09;32.15;;;16.48;;
34836;SDS011;21053;50.848;4.652;2023-05-10T05:59:35;32.28;;;15.73;;
34836;SDS011;21053;50.848;4.652;2023-05-10T06:02:02;36.33;;;16.88;;
34836;SDS011;21053;50.848;4.652;2023-05-10T06:04:27;35.42;;;16.67;;
34836;SDS011;21053;50.848;4.652;2023-05-10T06:06:54;35.92;;;17.17;;
34836;SDS011;21053;50.848;4.652;2023-05-10T06:09:20;35.10;;;15.82;;
34836;SDS011;21053;50.848;4.652;2023-05-10T06:11:46;33.78;;;16.83;;
34836;SDS011;21053;50.848;4.652;2023-05-10T06:14:12;29.20;;;14.35;;
34836;SDS011;21053;50.848;4.652;2023-05-10T06:16:40;31.77;;;15.48;;
34836;SDS011;21053;50.848;4.652;2023-05-10T06:19:06;35.70;;;16.75;;
34836;SDS011;21053;50.848;4.652;2023-05-10T06:21:33;35.85;;;16.70;;
34836;SDS011;21053;50.848;4.652;2023-05-10T06:24:00;31.33;;;14.90;;
34836;SDS011;21053;50.848;4.652;2023-05-10T06:26:28;30.08;;;15.07;;
34836;SDS011;21053;50.848;4.652;2023-05-10T06:28:55;30.35;;;15.02;;
34836;SDS011;21053;50.848;4.652;2023-05-10T06:31:21;30.85;;;14.75;;
34836;SDS011;21053;50.848;4.652;2023-05-10T06:36:18;16.08;;;9.13;;
34836;SDS011;21053;50.848;4.652;2023-05-10T06:38:50;15.73;;;7.70;;
34836;SDS011;21053;50.848;4.652;2023-05-10T06:43:48;13.13;;;6.53;;
34836;SDS011;21053;50.848;4.652;2023-05-10T06:48:45;6.57;;;4.00;;
34836;SDS011;21053;50.848;4.652;2023-05-10T06:51:13;8.85;;;3.75;;
34836;SDS011;21053;50.848;4.652;2023-05-10T06:53:40;4.75;;;2.88;;
34836;SDS011;21053;50.848;4.652;2023-05-10T06:56:06;7.13;;;3.70;;
34836;SDS011;21053;50.848;4.652;2023-05-10T07:01:02;8.10;;;3.75;;
34836;SDS011;21053;50.848;4.652;2023-05-10T07:03:30;10.52;;;4.13;;
34836;SDS011;21053;50.848;4.652;2023-05-10T07:06:01;10.02;;;3.72;;
34836;SDS011;21053;50.848;4.652;2023-05-10T07:08:31;16.85;;;4.90;;
34836;SDS011;21053;50.848;4.652;2023-05-10T07:11:06;8.98;;;4.53;;
34836;SDS011;21053;50.848;4.652;2023-05-10T07:13:35;5.80;;;3.65;;
34836;SDS011;21053;50.848;4.652;2023-05-10T07:16:03;5.75;;;3.60;;
34836;SDS011;21053;50.848;4.652;2023-05-10T07:18:33;5.13;;;3.38;;
34836;SDS011;21053;50.848;4.652;2023-05-10T07:20:59;6.28;;;3.25;;
34836;SDS011;21053;50.848;4.652;2023-05-10T07:23:25;4.85;;;3.25;;
34836;SDS011;21053;50.848;4.652;2023-05-10T07:25:51;8.13;;;3.00;;
34836;SDS011;21053;50.848;4.652;2023-05-10T07:28:19;6.57;;;3.40;;
34836;SDS011;21053;50.848;4.652;2023-05-10T07:30:46;6.32;;;2.42;;
34836;SDS011;21053;50.848;4.652;2023-05-10T07:33:13;6.78;;;2.40;;
34836;SDS011;21053;50.848;4.652;2023-05-10T07:35:43;6.15;;;1.92;;
34836;SDS011;21053;50.848;4.652;2023-05-10T07:38:11;2.95;;;2.28;;
34836;SDS011;21053;50.848;4.652;2023-05-10T07:40:40;6.57;;;3.33;;
34836;SDS011;21053;50.848;4.652;2023-05-10T07:43:09;7.20;;;3.40;;
34836;SDS011;21053;50.848;4.652;2023-05-10T07:48:06;7.35;;;4.13;;
34836;SDS011;21053;50.848;4.652;2023-05-10T07:53:03;7.18;;;4.47;;
34836;SDS011;21053;50.848;4.652;2023-05-10T07:55:29;10.32;;;4.82;;
34836;SDS011;21053;50.848;4.652;2023-05-10T07:57:55;12.88;;;6.13;;
34836;SDS011;21053;50.848;4.652;2023-05-10T08:00:23;17.38;;;7.55;;
34836;SDS011;21053;50.848;4.652;2023-05-10T08:05:21;13.30;;;6.55;;
34836;SDS011;21053;50.848;4.652;2023-05-10T08:07:48;18.50;;;7.45;;
34836;SDS011;21053;50.848;4.652;2023-05-10T08:10:16;17.55;;;6.82;;
34836;SDS011;21053;50.848;4.652;2023-05-10T08:15:11;14.50;;;7.15;;
34836;SDS011;21053;50.848;4.652;2023-05-10T08:17:40;17.55;;;7.70;;
34836;SDS011;21053;50.848;4.652;2023-05-10T08:25:07;16.55;;;7.97;;
34836;SDS011;21053;50.848;4.652;2023-05-10T08:27:33;18.50;;;8.05;;
34836;SDS011;21053;50.848;4.652;2023-05-10T08:29:59;16.90;;;7.72;;
34836;SDS011;21053;50.848;4.652;2023-05-10T08:32:26;20.90;;;8.10;;
34836;SDS011;21053;50.848;4.652;2023-05-10T08:34:53;12.77;;;6.90;;
34836;SDS011;21053;50.848;4.652;2023-05-10T08:37:20;14.20;;;7.00;;
34836;SDS011;21053;50.848;4.652;2023-05-10T08:42:19;12.52;;;6.53;;
34836;SDS011;21053;50.848;4.652;2023-05-10T08:44:48;10.82;;;6.05;;
34836;SDS011;21053;50.848;4.652;2023-05-10T08:47:17;16.00;;;6.50;;
34836;SDS011;21053;50.848;4.652;2023-05-10T08:49:45;14.23;;;6.20;;
34836;SDS011;21053;50.848;4.652;2023-05-10T08:54:43;12.95;;;5.85;;
34836;SDS011;21053;50.848;4.652;2023-05-10T08:57:10;9.23;;;5.43;;
34836;SDS011;21053;50.848;4.652;2023-05-10T08:59:42;10.57;;;5.05;;
34836;SDS011;21053;50.848;4.652;2023-05-10T09:04:38;8.88;;;4.72;;
34836;SDS011;21053;50.848;4.652;2023-05-10T09:09:35;8.77;;;4.63;;
34836;SDS011;21053;50.848;4.652;2023-05-10T09:12:02;7.53;;;4.25;;
34836;SDS011;21053;50.848;4.652;2023-05-10T09:14:31;13.13;;;4.80;;
34836;SDS011;21053;50.848;4.652;2023-05-10T09:17:03;8.70;;;4.40;;
34836;SDS011;21053;50.848;4.652;2023-05-10T09:19:31;12.15;;;5.05;;
34836;SDS011;21053;50.848;4.652;2023-05-10T09:21:57;9.07;;;3.83;;
34836;SDS011;21053;50.848;4.652;2023-05-10T09:24:29;5.65;;;3.40;;
34836;SDS011;21053;50.848;4.652;2023-05-10T09:26:57;9.20;;;3.70;;
34836;SDS011;21053;50.848;4.652;2023-05-10T09:32:05;6.00;;;3.30;;
34836;SDS011;21053;50.848;4.652;2023-05-10T09:34:31;5.65;;;2.95;;
34836;SDS011;21053;50.848;4.652;2023-05-10T09:37:00;6.38;;;3.25;;
34836;SDS011;21053;50.848;4.652;2023-05-10T09:39:34;5.47;;;3.30;;
34836;SDS011;21053;50.848;4.652;2023-05-10T09:42:09;7.72;;;2.50;;
34836;SDS011;21053;50.848;4.652;2023-05-10T09:44:38;4.25;;;2.30;;
34836;SDS011;21053;50.848;4.652;2023-05-10T09:47:07;3.25;;;2.10;;
34836;SDS011;21053;50.848;4.652;2023-05-10T09:49:39;4.82;;;1.90;;
34836;SDS011;21053;50.848;4.652;2023-05-10T09:52:10;5.40;;;2.35;;
34836;SDS011;21053;50.848;4.652;2023-05-10T09:54:35;4.22;;;2.20;;
34836;SDS011;21053;50.848;4.652;2023-05-10T09:57:04;3.72;;;2.10;;
34836;SDS011;21053;50.848;4.652;2023-05-10T09:59:32;3.83;;;2.30;;
34836;SDS011;21053;50.848;4.652;2023-05-10T10:02:01;2.67;;;2.10;;
34836;SDS011;21053;50.848;4.652;2023-05-10T10:07:06;4.30;;;2.40;;
34836;SDS011;21053;50.848;4.652;2023-05-10T10:09:33;3.83;;;2.00;;
34836;SDS011;21053;50.848;4.652;2023-05-10T10:12:02;2.85;;;2.08;;
34836;SDS011;21053;50.848;4.652;2023-05-10T10:14:31;3.85;;;2.50;;
34836;SDS011;21053;50.848;4.652;2023-05-10T10:19:28;4.07;;;2.35;;
34836;SDS011;21053;50.848;4.652;2023-05-10T10:22:01;3.67;;;2.13;;
34836;SDS011;21053;50.848;4.652;2023-05-10T10:24:27;6.25;;;2.30;;
34836;SDS011;21053;50.848;4.652;2023-05-10T10:26:55;5.00;;;2.15;;
34836;SDS011;21053;50.848;4.652;2023-05-10T10:29:38;3.25;;;2.33;;
34836;SDS011;21053;50.848;4.652;2023-05-10T10:35:23;2.65;;;2.10;;
34836;SDS011;21053;50.848;4.652;2023-05-10T10:37:51;3.47;;;2.22;;
34836;SDS011;21053;50.848;4.652;2023-05-10T10:40:29;2.20;;;2.00;;
34836;SDS011;21053;50.848;4.652;2023-05-10T10:42:58;6.28;;;1.90;;
34836;SDS011;21053;50.848;4.652;2023-05-10T10:48:39;1.70;;;1.33;;
34836;SDS011;21053;50.848;4.652;2023-05-10T10:51:09;2.35;;;1.65;;
34836;SDS011;21053;50.848;4.652;2023-05-10T10:53:36;4.50;;;1.40;;
34836;SDS011;21053;50.848;4.652;2023-05-10T10:56:10;4.70;;;1.67;;
34836;SDS011;21053;50.848;4.652;2023-05-10T10:58:38;1.45;;;1.35;;
34836;SDS011;21053;50.848;4.652;2023-05-10T11:01:11;3.45;;;1.70;;
34836;SDS011;21053;50.848;4.652;2023-05-10T11:03:38;1.23;;;1.13;;
34836;SDS011;21053;50.848;4.652;2023-05-10T11:06:06;2.65;;;1.60;;
34836;SDS011;21053;50.848;4.652;2023-05-10T11:08:33;2.28;;;1.20;;
34836;SDS011;21053;50.848;4.652;2023-05-10T11:11:06;1.38;;;1.27;;
34836;SDS011;21053;50.848;4.652;2023-05-10T11:13:42;1.50;;;1.23;;
34836;SDS011;21053;50.848;4.652;2023-05-10T11:16:22;1.23;;;1.10;;
34836;SDS011;21053;50.848;4.652;2023-05-10T11:19:06;3.75;;;1.00;;
34836;SDS011;21053;50.848;4.652;2023-05-10T11:24:18;1.45;;;1.13;;
34836;SDS011;21053;50.848;4.652;2023-05-10T11:26:46;1.52;;;1.10;;
34836;SDS011;21053;50.848;4.652;2023-05-10T11:29:16;1.20;;;1.10;;
34836;SDS011;21053;50.848;4.652;2023-05-10T11:31:45;4.93;;;1.30;;
34836;SDS011;21053;50.848;4.652;2023-05-10T11:34:33;1.20;;;1.10;;
34836;SDS011;21053;50.848;4.652;2023-05-10T11:37:01;1.00;;;1.00;;
34836;SDS011;21053;50.848;4.652;2023-05-10T11:39:27;5.18;;;1.40;;
34836;SDS011;21053;50.848;4.652;2023-05-10T11:41:57;1.17;;;1.10;;
34836;SDS011;21053;50.848;4.652;2023-05-10T11:44:31;1.67;;;1.38;;
34836;SDS011;21053;50.848;4.652;2023-05-10T11:46:59;3.72;;;1.17;;
34836;SDS011;21053;50.848;4.652;2023-05-10T11:49:26;2.67;;;1.30;;
34836;SDS011;21053;50.848;4.652;2023-05-10T11:52:04;2.10;;;1.17;;
34836;SDS011;21053;50.848;4.652;2023-05-10T11:54:31;1.98;;;1.83;;
34836;SDS011;21053;50.848;4.652;2023-05-10T11:56:57;1.52;;;1.30;;
34836;SDS011;21053;50.848;4.652;2023-05-10T11:59:24;2.25;;;1.30;;
34836;SDS011;21053;50.848;4.652;2023-05-10T12:01:50;2.10;;;1.45;;
34836;SDS011;21053;50.848;4.652;2023-05-10T12:04:18;1.70;;;1.60;;
34836;SDS011;21053;50.848;4.652;2023-05-10T12:06:45;2.80;;;1.55;;
34836;SDS011;21053;50.848;4.652;2023-05-10T12:09:11;1.95;;;1.67;;
34836;SDS011;21053;50.848;4.652;2023-05-10T12:11:39;4.10;;;1.63;;
34836;SDS011;21053;50.848;4.652;2023-05-10T12:14:08;3.15;;;1.60;;
34836;SDS011;21053;50.848;4.652;2023-05-10T12:16:37;2.00;;;1.70;;
34836;SDS011;21053;50.848;4.652;2023-05-10T12:19:04;1.73;;;1.50;;
34836;SDS011;21053;50.848;4.652;2023-05-10T12:23:59;2.30;;;1.98;;
34836;SDS011;21053;50.848;4.652;2023-05-10T12:26:30;1.92;;;1.80;;
34836;SDS011;21053;50.848;4.652;2023-05-10T12:31:55;2.17;;;1.85;;
34836;SDS011;21053;50.848;4.652;2023-05-10T12:34:29;4.32;;;1.60;;
34836;SDS011;21053;50.848;4.652;2023-05-10T12:37:02;2.53;;;1.70;;
34836;SDS011;21053;50.848;4.652;2023-05-10T12:39:44;1.65;;;1.55;;
34836;SDS011;21053;50.848;4.652;2023-05-10T12:42:12;1.90;;;1.70;;
34836;SDS011;21053;50.848;4.652;2023-05-10T12:44:41;1.67;;;1.50;;
34836;SDS011;21053;50.848;4.652;2023-05-10T12:47:08;1.95;;;1.42;;
34836;SDS011;21053;50.848;4.652;2023-05-10T12:49:36;2.25;;;1.58;;
34836;SDS011;21053;50.848;4.652;2023-05-10T12:52:03;1.60;;;1.42;;
34836;SDS011;21053;50.848;4.652;2023-05-10T12:54:36;1.95;;;1.60;;
34836;SDS011;21053;50.848;4.652;2023-05-10T12:57:03;2.38;;;1.50;;
34836;SDS011;21053;50.848;4.652;2023-05-10T12:59:32;1.70;;;1.60;;
34836;SDS011;21053;50.848;4.652;2023-05-10T13:01:59;2.35;;;1.70;;
34836;SDS011;21053;50.848;4.652;2023-05-10T13:04:28;2.53;;;1.52;;
34836;SDS011;21053;50.848;4.652;2023-05-10T13:09:26;3.67;;;1.50;;
34836;SDS011;21053;50.848;4.652;2023-05-10T13:12:00;2.53;;;1.67;;
34836;SDS011;21053;50.848;4.652;2023-05-10T13:14:26;4.38;;;1.83;;
34836;SDS011;21053;50.848;4.652;2023-05-10T13:16:52;2.95;;;1.75;;
34836;SDS011;21053;50.848;4.652;2023-05-10T13:19:19;3.75;;;1.70;;
34836;SDS011;21053;50.848;4.652;2023-05-10T13:21:46;1.60;;;1.30;;
34836;SDS011;21053;50.848;4.652;2023-05-10T13:24:13;1.50;;;1.30;;
34836;SDS011;21053;50.848;4.652;2023-05-10T13:26:43;3.13;;;1.10;;
34836;SDS011;21053;50.848;4.652;2023-05-10T13:29:08;1.67;;;1.40;;
34836;SDS011;21053;50.848;4.652;2023-05-10T13:31:35;1.80;;;1.40;;
34836;SDS011;21053;50.848;4.652;2023-05-10T13:34:02;1.50;;;1.40;;
34836;SDS011;21053;50.848;4.652;2023-05-10T13:36:31;3.22;;;1.75;;
34836;SDS011;21053;50.848;4.652;2023-05-10T13:41:28;3.25;;;1.58;;
34836;SDS011;21053;50.848;4.652;2023-05-10T13:43:55;2.20;;;1.73;;
34836;SDS011;21053;50.848;4.652;2023-05-10T13:46:22;2.75;;;1.70;;
34836;SDS011;21053;50.848;4.652;2023-05-10T13:48:50;1.80;;;1.52;;
34836;SDS011;21053;50.848;4.652;2023-05-10T13:51:15;1.60;;;1.50;;
34836;SDS011;21053;50.848;4.652;2023-05-10T13:53:42;6.07;;;1.80;;
34836;SDS011;21053;50.848;4.652;2023-05-10T13:56:08;1.85;;;1.63;;
34836;SDS011;21053;50.848;4.652;2023-05-10T13:58:35;1.88;;;1.63;;
34836;SDS011;21053;50.848;4.652;2023-05-10T14:01:01;1.70;;;1.50;;
34836;SDS011;21053;50.848;4.652;2023-05-10T14:03:28;4.28;;;1.58;;
34836;SDS011;21053;50.848;4.652;2023-05-10T14:05:54;2.55;;;1.70;;
34836;SDS011;21053;50.848;4.652;2023-05-10T14:08:21;3.03;;;1.90;;
34836;SDS011;21053;50.848;4.652;2023-05-10T14:10:47;2.20;;;1.98;;
34836;SDS011;21053;50.848;4.652;2023-05-10T14:13:15;2.92;;;1.95;;
34836;SDS011;21053;50.848;4.652;2023-05-10T14:15:40;4.95;;;2.50;;
34836;SDS011;21053;50.848;4.652;2023-05-10T14:18:06;3.53;;;2.10;;
34836;SDS011;21053;50.848;4.652;2023-05-10T14:20:32;2.80;;;2.30;;
34836;SDS011;21053;50.848;4.652;2023-05-10T14:23:00;3.78;;;2.30;;
34836;SDS011;21053;50.848;4.652;2023-05-10T14:25:27;5.00;;;2.90;;
34836;SDS011;21053;50.848;4.652;2023-05-10T14:27:54;5.03;;;2.60;;
34836;SDS011;21053;50.848;4.652;2023-05-10T14:30:20;4.72;;;2.38;;
34836;SDS011;21053;50.848;4.652;2023-05-10T14:32:46;5.80;;;2.72;;
34836;SDS011;21053;50.848;4.652;2023-05-10T14:37:40;4.72;;;2.53;;
34836;SDS011;21053;50.848;4.652;2023-05-10T14:40:06;4.18;;;2.70;;
34836;SDS011;21053;50.848;4.652;2023-05-10T14:42:32;7.95;;;2.33;;
34836;SDS011;21053;50.848;4.652;2023-05-10T14:45:03;6.93;;;2.60;;
34836;SDS011;21053;50.848;4.652;2023-05-10T14:47:31;11.45;;;2.65;;
34836;SDS011;21053;50.848;4.652;2023-05-10T14:49:58;5.03;;;2.50;;
34836;SDS011;21053;50.848;4.652;2023-05-10T14:52:25;4.70;;;2.22;;
34836;SDS011;21053;50.848;4.652;2023-05-10T14:54:50;6.25;;;3.05;;
34836;SDS011;21053;50.848;4.652;2023-05-10T14:57:17;4.85;;;2.83;;
34836;SDS011;21053;50.848;4.652;2023-05-10T14:59:43;4.70;;;2.97;;
34836;SDS011;21053;50.848;4.652;2023-05-10T15:02:09;8.00;;;3.47;;
34836;SDS011;21053;50.848;4.652;2023-05-10T15:04:35;5.75;;;3.10;;
34836;SDS011;21053;50.848;4.652;2023-05-10T15:07:01;6.00;;;3.05;;
34836;SDS011;21053;50.848;4.652;2023-05-10T15:09:27;5.65;;;3.00;;
34836;SDS011;21053;50.848;4.652;2023-05-10T15:11:54;4.72;;;3.10;;
34836;SDS011;21053;50.848;4.652;2023-05-10T15:14:20;8.55;;;3.60;;
34836;SDS011;21053;50.848;4.652;2023-05-10T15:16:47;6.18;;;4.10;;
34836;SDS011;21053;50.848;4.652;2023-05-10T15:19:14;7.55;;;4.38;;
34836;SDS011;21053;50.848;4.652;2023-05-10T15:21:41;8.00;;;4.25;;
34836;SDS011;21053;50.848;4.652;2023-05-10T15:24:09;7.70;;;4.78;;
34836;SDS011;21053;50.848;4.652;2023-05-10T15:26:35;9.48;;;5.35;;
34836;SDS011;21053;50.848;4.652;2023-05-10T15:29:02;9.63;;;5.22;;
34836;SDS011;21053;50.848;4.652;2023-05-10T15:31:28;17.33;;;5.88;;
34836;SDS011;21053;50.848;4.652;2023-05-10T15:33:57;8.93;;;5.63;;
34836;SDS011;21053;50.848;4.652;2023-05-10T15:36:26;15.68;;;6.82;;
34836;SDS011;21053;50.848;4.652;2023-05-10T15:38:56;10.25;;;6.32;;
34836;SDS011;21053;50.848;4.652;2023-05-10T15:41:23;13.13;;;7.00;;
34836;SDS011;21053;50.848;4.652;2023-05-10T15:43:50;16.75;;;6.85;;
34836;SDS011;21053;50.848;4.652;2023-05-10T15:46:18;13.30;;;5.47;;
34836;SDS011;21053;50.848;4.652;2023-05-10T15:48:44;11.48;;;5.75;;
34836;SDS011;21053;50.848;4.652;2023-05-10T15:51:10;17.85;;;5.97;;
34836;SDS011;21053;50.848;4.652;2023-05-10T15:53:36;14.00;;;5.72;;
34836;SDS011;21053;50.848;4.652;2023-05-10T15:56:03;15.55;;;6.80;;
34836;SDS011;21053;50.848;4.652;2023-05-10T15:58:29;16.52;;;7.05;;
34836;SDS011;21053;50.848;4.652;2023-05-10T16:00:56;12.95;;;6.90;;
34836;SDS011;21053;50.848;4.652;2023-05-10T16:03:24;18.23;;;5.90;;
34836;SDS011;21053;50.848;4.652;2023-05-10T16:08:19;16.35;;;6.13;;
34836;SDS011;21053;50.848;4.652;2023-05-10T16:10:46;11.73;;;5.43;;
34836;SDS011;21053;50.848;4.652;2023-05-10T16:13:11;12.18;;;5.50;;
34836;SDS011;21053;50.848;4.652;2023-05-10T16:15:39;12.32;;;5.60;;
34836;SDS011;21053;50.848;4.652;2023-05-10T16:18:06;15.07;;;5.60;;
34836;SDS011;21053;50.848;4.652;2023-05-10T16:20:32;19.27;;;5.80;;
34836;SDS011;21053;50.848;4.652;2023-05-10T16:23:03;14.45;;;6.15;;
34836;SDS011;21053;50.848;4.652;2023-05-10T16:25:31;14.75;;;5.75;;
34836;SDS011;21053;50.848;4.652;2023-05-10T16:27:59;14.73;;;6.07;;
34836;SDS011;21053;50.848;4.652;2023-05-10T16:30:25;10.75;;;4.93;;
34836;SDS011;21053;50.848;4.652;2023-05-10T16:32:51;17.60;;;5.80;;
34836;SDS011;21053;50.848;4.652;2023-05-10T16:35:19;13.70;;;5.20;;
34836;SDS011;21053;50.848;4.652;2023-05-10T16:37:45;13.25;;;5.63;;
34836;SDS011;21053;50.848;4.652;2023-05-10T16:40:11;15.57;;;5.43;;
34836;SDS011;21053;50.848;4.652;2023-05-10T16:42:39;16.05;;;5.63;;